METAR rapporten vliegvelden

   
EHVK - Volkel Rnlafb, Netherlands
Afstand tot: ZW 18 km
Gewijzigd: 28-09-2020 04:25
Bewolking  
Bewolking  
   Wind: WZW 7.4 km/h
Wind: WZW 7.4 km/h
Temperatuur: 12°C
Dauwpunt: 11°C
Vochtigheid: 94%
Barometer: 1007 hPa
Bewolking: Bewolking
Zicht: meer dan 10 km
Bewolking: Gedeeltelijk bewolkt 3500 ft,
Grotendeels bewolkt 3900 ft,
Bewolking 4400 ft
EHVK 280225Z AUTO 24004KT 9999 SCT035 BKN039 OVC044 12/11 Q1007 BLU
EDLV - Niederrhein, Germany
Afstand tot: ZO 25 km
Gewijzigd: 27-09-2020 23:50
Verouderd
Helder  
Helder  
   Wind: Kalm
Wind: Kalm
Temperatuur: 11°C
Dauwpunt: 10°C
Vochtigheid: 94%
Barometer: 1008 hPa
Zicht: meer dan 10 km
Bewolking: Helder
EDLV 272150Z 00000KT CAVOK 11/10 Q1008
EHDL - Deelen Rnlafb, Netherlands
Afstand tot: N 35 km
Gewijzigd: 28-09-2020 04:25
Nevel, Bewolking  
Nevel, Bewolking  
   Wind: ZW 5.6 km/h
Wind: ZW 5.6 km/h
Temperatuur: 12°C
Dauwpunt: 11°C
Vochtigheid: 94%
Barometer: 1007 hPa
Bewolking: Bewolking
Zicht: 9 km
Bewolking: Bewolking 2400 ft
EHDL 280225Z AUTO 22003KT 170V240 9000 BR OVC024 12/11 Q1007 WHT
EHEH - Eindhoven Rnlafb, Netherlands
Afstand tot: ZW 48 km
Gewijzigd: 28-09-2020 04:25
Bewolking  
Bewolking  
   Wind: WZW 9.3 km/h
Wind: WZW 9.3 km/h
Temperatuur: 12°C
Dauwpunt: 11°C
Vochtigheid: 94%
Barometer: 1007 hPa
Bewolking: Bewolking
Bewolking: Bewolking 3600 ft
EHEH 280225Z AUTO 24005KT //// // OVC036 12/11 Q1007 RE//
EHGR - Gilze-Rijen Rnla, Netherlands
Afstand tot: WZW 70 km
Gewijzigd: 28-09-2020 04:25
Motregen, Bewolking  
Motregen, Bewolking  
   Wind: Zuiden 5.6 km/h
Wind: Zuiden 5.6 km/h
Temperatuur: 12°C
Dauwpunt: 12°C
Vochtigheid: 100%
Barometer: 1007 hPa
Bewolking: Bewolking
Zicht: 5 km
Bewolking: Grotendeels bewolkt 1500 ft,
Bewolking 2400 ft
EHGR 280225Z AUTO 19003KT 5000 DZ BKN015CB OVC024 12/12 Q1007 WHT
EBBL - Kleine-Brogel(Ba, Belgium
Afstand tot: ZZW 71 km
Gewijzigd: 28-09-2020 04:25
Bewolking  
Bewolking  
   Wind: varieert 3.7 km/h
Wind: varieert 3.7 km/h
Temperatuur: 11°C
Dauwpunt: 10°C
Vochtigheid: 94%
Barometer: 1008 hPa
Bewolking: Bewolking
Zicht: meer dan 10 km
Bewolking: Bewolking 4800 ft
EBBL 280225Z AUTO VRB02KT 9999 OVC048/// 11/10 Q1008 BLU

Script ontwikkeld door  Saratoga-weather.org Aangepast voor de template door  Weerstation Leuven

U vindt ons ook hier:

Het Weer Aktueel

European Weather Network

WeatherCloud

Weather Underground

Benelux Weer Netwerk

Apparatuur in gebruik:

Weerstation
Davis VP2

Weerprogramma
consoleWD

Weercomputer
Raspberry

Webleverancier
Stef van Bakel koeltechniek

Davis VP2

consoleWD

Raspberry

Stef van Bakel koeltechniek